sensor_id;sensor_type;location;lat;lon;timestamp;pressure;altitude;pressure_sealevel;temperature;humidity
28312;BME280;15572;48.810;9.148;2023-01-26T00:00:07;98728.31;;;0.39;100.00
28312;BME280;15572;48.810;9.148;2023-01-26T00:05:06;98713.78;;;0.43;100.00
28312;BME280;15572;48.810;9.148;2023-01-26T00:10:03;98711.66;;;0.48;100.00
28312;BME280;15572;48.810;9.148;2023-01-26T00:15:00;98700.97;;;0.48;100.00
28312;BME280;15572;48.810;9.148;2023-01-26T00:19:57;98693.69;;;0.50;100.00
28312;BME280;15572;48.810;9.148;2023-01-26T00:24:55;98676.75;;;0.40;100.00
28312;BME280;15572;48.810;9.148;2023-01-26T00:29:52;98677.81;;;0.37;100.00
28312;BME280;15572;48.810;9.148;2023-01-26T00:34:48;98675.03;;;0.39;100.00
28312;BME280;15572;48.810;9.148;2023-01-26T00:39:45;98663.78;;;0.35;100.00
28312;BME280;15572;48.810;9.148;2023-01-26T00:44:42;98654.22;;;0.33;100.00
28312;BME280;15572;48.810;9.148;2023-01-26T00:49:39;98653.25;;;0.23;100.00
28312;BME280;15572;48.810;9.148;2023-01-26T00:54:35;98651.81;;;0.19;100.00
28312;BME280;15572;48.810;9.148;2023-01-26T00:59:32;98646.25;;;0.11;100.00
28312;BME280;15572;48.810;9.148;2023-01-26T01:04:30;98638.75;;;0.05;100.00
28312;BME280;15572;48.810;9.148;2023-01-26T01:09:26;98644.06;;;0.05;100.00
28312;BME280;15572;48.810;9.148;2023-01-26T01:14:23;98649.03;;;0.09;100.00
28312;BME280;15572;48.810;9.148;2023-01-26T01:19:19;98646.38;;;0.09;100.00
28312;BME280;15572;48.810;9.148;2023-01-26T01:24:17;98646.25;;;0.11;100.00
28312;BME280;15572;48.810;9.148;2023-01-26T01:29:14;98643.44;;;0.12;100.00
28312;BME280;15572;48.810;9.148;2023-01-26T01:34:10;98645.03;;;0.15;100.00
28312;BME280;15572;48.810;9.148;2023-01-26T01:39:06;98633.28;;;0.17;100.00
28312;BME280;15572;48.810;9.148;2023-01-26T01:44:16;98630.50;;;0.19;100.00
28312;BME280;15572;48.810;9.148;2023-01-26T01:49:16;98624.22;;;0.09;100.00
28312;BME280;15572;48.810;9.148;2023-01-26T01:54:16;98620.81;;;0.07;100.00
28312;BME280;15572;48.810;9.148;2023-01-26T01:59:17;98621.66;;;0.07;100.00
28312;BME280;15572;48.810;9.148;2023-01-26T02:04:18;98622.88;;;0.14;100.00
28312;BME280;15572;48.810;9.148;2023-01-26T02:09:15;98611.75;;;0.09;100.00
28312;BME280;15572;48.810;9.148;2023-01-26T02:14:27;98604.72;;;0.08;100.00
28312;BME280;15572;48.810;9.148;2023-01-26T02:19:30;98598.31;;;-0.01;100.00
28312;BME280;15572;48.810;9.148;2023-01-26T02:24:33;98602.66;;;0.00;100.00
28312;BME280;15572;48.810;9.148;2023-01-26T02:29:32;98597.31;;;0.00;100.00
28312;BME280;15572;48.810;9.148;2023-01-26T02:34:29;98601.84;;;0.00;100.00
28312;BME280;15572;48.810;9.148;2023-01-26T02:39:37;98605.56;;;-0.03;100.00
28312;BME280;15572;48.810;9.148;2023-01-26T02:44:38;98589.00;;;-0.06;100.00
28312;BME280;15572;48.810;9.148;2023-01-26T02:49:35;98589.00;;;-0.06;100.00
28312;BME280;15572;48.810;9.148;2023-01-26T02:54:46;98581.97;;;-0.07;100.00
28312;BME280;15572;48.810;9.148;2023-01-26T03:00:10;98576.75;;;-0.09;100.00
28312;BME280;15572;48.810;9.148;2023-01-26T03:05:08;98574.94;;;-0.08;100.00
28312;BME280;15572;48.810;9.148;2023-01-26T03:10:05;98572.41;;;-0.10;100.00
28312;BME280;15572;48.810;9.148;2023-01-26T03:15:03;98573.25;;;-0.09;100.00
28312;BME280;15572;48.810;9.148;2023-01-26T03:20:19;98553.66;;;-0.08;100.00
28312;BME280;15572;48.810;9.148;2023-01-26T03:25:32;98547.25;;;-0.06;100.00
28312;BME280;15572;48.810;9.148;2023-01-26T03:30:46;98545.19;;;-0.02;100.00
28312;BME280;15572;48.810;9.148;2023-01-26T03:35:45;98542.06;;;-0.07;100.00
28312;BME280;15572;48.810;9.148;2023-01-26T03:40:41;98537.69;;;-0.08;100.00
28312;BME280;15572;48.810;9.148;2023-01-26T03:45:55;98536.94;;;-0.10;100.00
28312;BME280;15572;48.810;9.148;2023-01-26T03:51:11;98537.94;;;-0.11;100.00
28312;BME280;15572;48.810;9.148;2023-01-26T03:56:25;98539.28;;;-0.17;100.00
28312;BME280;15572;48.810;9.148;2023-01-26T04:01:26;98545.66;;;-0.19;100.00
28312;BME280;15572;48.810;9.148;2023-01-26T04:06:24;98546.78;;;-0.22;100.00
28312;BME280;15572;48.810;9.148;2023-01-26T04:11:38;98546.78;;;-0.22;100.00
28312;BME280;15572;48.810;9.148;2023-01-26T04:16:35;98542.91;;;-0.18;100.00
28312;BME280;15572;48.810;9.148;2023-01-26T04:21:50;98538.28;;;-0.16;100.00
28312;BME280;15572;48.810;9.148;2023-01-26T04:26:47;98539.28;;;-0.17;100.00
28312;BME280;15572;48.810;9.148;2023-01-26T04:31:43;98546.53;;;-0.19;100.00
28312;BME280;15572;48.810;9.148;2023-01-26T04:36:40;98536.00;;;-0.20;100.00
28312;BME280;15572;48.810;9.148;2023-01-26T04:41:38;98529.81;;;-0.21;100.00
28312;BME280;15572;48.810;9.148;2023-01-26T04:46:35;98527.53;;;-0.25;100.00
28312;BME280;15572;48.810;9.148;2023-01-26T04:51:31;98515.81;;;-0.23;100.00
28312;BME280;15572;48.810;9.148;2023-01-26T04:56:30;98518.31;;;-0.21;100.00
28312;BME280;15572;48.810;9.148;2023-01-26T05:01:28;98525.50;;;-0.22;100.00
28312;BME280;15572;48.810;9.148;2023-01-26T05:06:24;98521.25;;;-0.24;100.00
28312;BME280;15572;48.810;9.148;2023-01-26T05:11:21;98522.09;;;-0.35;100.00
28312;BME280;15572;48.810;9.148;2023-01-26T05:16:17;98529.00;;;-0.44;100.00
28312;BME280;15572;48.810;9.148;2023-01-26T05:21:15;98523.03;;;-0.47;100.00
28312;BME280;15572;48.810;9.148;2023-01-26T05:26:12;98527.75;;;-0.51;100.00
28312;BME280;15572;48.810;9.148;2023-01-26T05:31:08;98528.34;;;-0.58;100.00
28312;BME280;15572;48.810;9.148;2023-01-26T05:36:06;98523.75;;;-0.56;100.00
28312;BME280;15572;48.810;9.148;2023-01-26T05:41:05;98530.03;;;-0.57;100.00
28312;BME280;15572;48.810;9.148;2023-01-26T05:46:01;98529.34;;;-0.59;100.00
28312;BME280;15572;48.810;9.148;2023-01-26T05:50:58;98528.34;;;-0.58;100.00
28312;BME280;15572;48.810;9.148;2023-01-26T05:55:55;98531.50;;;-0.53;100.00
28312;BME280;15572;48.810;9.148;2023-01-26T06:00:52;98529.34;;;-0.59;100.00
28312;BME280;15572;48.810;9.148;2023-01-26T06:05:53;98534.97;;;-0.64;100.00
28312;BME280;15572;48.810;9.148;2023-01-26T06:10:49;98535.84;;;-0.63;100.00
28312;BME280;15572;48.810;9.148;2023-01-26T06:15:46;98534.75;;;-0.72;100.00
28312;BME280;15572;48.810;9.148;2023-01-26T06:20:44;98526.28;;;-0.66;100.00
28312;BME280;15572;48.810;9.148;2023-01-26T06:25:40;98537.66;;;-0.75;100.00
28312;BME280;15572;48.810;9.148;2023-01-26T06:30:37;98539.31;;;-0.74;100.00
28312;BME280;15572;48.810;9.148;2023-01-26T06:35:33;98539.94;;;-0.70;100.00
28312;BME280;15572;48.810;9.148;2023-01-26T06:40:32;98544.28;;;-0.69;100.00
28312;BME280;15572;48.810;9.148;2023-01-26T06:45:29;98537.41;;;-0.72;100.00
28312;BME280;15572;48.810;9.148;2023-01-26T06:50:30;98544.41;;;-0.71;100.00
28312;BME280;15572;48.810;9.148;2023-01-26T06:55:33;98539.47;;;-0.75;100.00
28312;BME280;15572;48.810;9.148;2023-01-26T07:00:30;98543.06;;;-0.76;100.00
28312;BME280;15572;48.810;9.148;2023-01-26T07:05:27;98542.13;;;-0.75;100.00
28312;BME280;15572;48.810;9.148;2023-01-26T07:10:23;98541.88;;;-0.72;100.00
28312;BME280;15572;48.810;9.148;2023-01-26T07:15:21;98545.50;;;-0.73;100.00
28312;BME280;15572;48.810;9.148;2023-01-26T07:20:18;98551.16;;;-0.78;100.00
28312;BME280;15572;48.810;9.148;2023-01-26T07:25:14;98561.69;;;-0.76;100.00
28312;BME280;15572;48.810;9.148;2023-01-26T07:30:11;98560.00;;;-0.77;100.00
28312;BME280;15572;48.810;9.148;2023-01-26T07:35:10;98566.16;;;-0.77;100.00
28312;BME280;15572;48.810;9.148;2023-01-26T07:40:07;98561.59;;;-0.75;100.00
28312;BME280;15572;48.810;9.148;2023-01-26T07:45:05;98554.69;;;-0.66;100.00
28312;BME280;15572;48.810;9.148;2023-01-26T07:50:02;98557.09;;;-0.63;100.00
28312;BME280;15572;48.810;9.148;2023-01-26T07:55:00;98553.50;;;-0.62;100.00
28312;BME280;15572;48.810;9.148;2023-01-26T07:59:56;98552.03;;;-0.66;100.00
28312;BME280;15572;48.810;9.148;2023-01-26T08:04:53;98549.63;;;-0.58;100.00
28312;BME280;15572;48.810;9.148;2023-01-26T08:09:49;98555.44;;;-0.53;100.00
28312;BME280;15572;48.810;9.148;2023-01-26T08:14:47;98559.94;;;-0.54;100.00
28312;BME280;15572;48.810;9.148;2023-01-26T08:19:43;98555.44;;;-0.53;100.00
28312;BME280;15572;48.810;9.148;2023-01-26T08:24:40;98562.69;;;-0.55;100.00
28312;BME280;15572;48.810;9.148;2023-01-26T08:29:36;98555.44;;;-0.53;100.00
28312;BME280;15572;48.810;9.148;2023-01-26T08:34:34;98549.28;;;-0.54;100.00
28312;BME280;15572;48.810;9.148;2023-01-26T08:39:31;98542.50;;;-0.58;100.00
28312;BME280;15572;48.810;9.148;2023-01-26T08:44:27;98543.84;;;-0.52;100.00
28312;BME280;15572;48.810;9.148;2023-01-26T08:49:24;98548.44;;;-0.54;100.00
28312;BME280;15572;48.810;9.148;2023-01-26T08:54:22;98544.19;;;-0.57;100.00
28312;BME280;15572;48.810;9.148;2023-01-26T08:59:18;98548.09;;;-0.50;100.00
28312;BME280;15572;48.810;9.148;2023-01-26T09:04:15;98546.63;;;-0.54;100.00
28312;BME280;15572;48.810;9.148;2023-01-26T09:09:11;98542.38;;;-0.56;100.00
28312;BME280;15572;48.810;9.148;2023-01-26T09:14:10;98540.69;;;-0.57;100.00
28312;BME280;15572;48.810;9.148;2023-01-26T09:19:07;98540.78;;;-0.59;100.00
28312;BME280;15572;48.810;9.148;2023-01-26T09:24:04;98542.97;;;-0.53;100.00
28312;BME280;15572;48.810;9.148;2023-01-26T09:29:01;98540.19;;;-0.62;100.00
28312;BME280;15572;48.810;9.148;2023-01-26T09:34:00;98552.78;;;-0.64;100.00
28312;BME280;15572;48.810;9.148;2023-01-26T09:38:58;98558.31;;;-0.67;100.00
28312;BME280;15572;48.810;9.148;2023-01-26T09:43:57;98556.63;;;-0.68;100.00
28312;BME280;15572;48.810;9.148;2023-01-26T10:00:45;98561.34;;;-0.61;100.00
28312;BME280;15572;48.810;9.148;2023-01-26T10:05:46;98563.06;;;-0.60;100.00
28312;BME280;15572;48.810;9.148;2023-01-26T10:10:48;98555.44;;;-0.53;100.00
28312;BME280;15572;48.810;9.148;2023-01-26T10:15:50;98554.72;;;-0.55;100.00
28312;BME280;15572;48.810;9.148;2023-01-26T10:20:50;98544.19;;;-0.57;100.00
28312;BME280;15572;48.810;9.148;2023-01-26T10:25:50;98555.22;;;-0.50;100.00
28312;BME280;15572;48.810;9.148;2023-01-26T10:30:50;98540.09;;;-0.50;100.00
28312;BME280;15572;48.810;9.148;2023-01-26T10:35:47;98551.13;;;-0.43;100.00
28312;BME280;15572;48.810;9.148;2023-01-26T10:40:43;98555.22;;;-0.39;100.00
28312;BME280;15572;48.810;9.148;2023-01-26T10:45:44;98551.34;;;-0.35;100.00
28312;BME280;15572;48.810;9.148;2023-01-26T10:50:43;98559.09;;;-0.32;100.00
28312;BME280;15572;48.810;9.148;2023-01-26T10:55:39;98539.47;;;-0.42;100.00
28312;BME280;15572;48.810;9.148;2023-01-26T11:00:36;98545.28;;;-0.48;100.00
28312;BME280;15572;48.810;9.148;2023-01-26T11:05:32;98531.25;;;-0.61;100.00
28312;BME280;15572;48.810;9.148;2023-01-26T11:10:32;98542.75;;;-0.50;100.00
28312;BME280;15572;48.810;9.148;2023-01-26T11:15:34;98533.56;;;-0.57;100.00
28312;BME280;15572;48.810;9.148;2023-01-26T11:20:53;98533.41;;;-0.66;100.00
28312;BME280;15572;48.810;9.148;2023-01-26T11:26:23;98519.53;;;-0.70;100.00
28312;BME280;15572;48.810;9.148;2023-01-26T11:31:32;98521.56;;;-0.73;100.00
28312;BME280;15572;48.810;9.148;2023-01-26T11:36:38;98515.38;;;-0.74;100.00
28312;BME280;15572;48.810;9.148;2023-01-26T11:41:48;98506.69;;;-0.76;100.00
28312;BME280;15572;48.810;9.148;2023-01-26T11:47:04;98506.22;;;-0.81;100.00
28312;BME280;15572;48.810;9.148;2023-01-26T11:52:08;98499.06;;;-0.69;100.00
28312;BME280;15572;48.810;9.148;2023-01-26T11:57:17;98496.56;;;-0.71;100.00
28312;BME280;15572;48.810;9.148;2023-01-26T12:02:23;98490.88;;;-0.66;100.00
28312;BME280;15572;48.810;9.148;2023-01-26T12:07:26;98481.94;;;-0.54;100.00
28312;BME280;15572;48.810;9.148;2023-01-26T12:12:31;98491.72;;;-0.55;100.00
28312;BME280;15572;48.810;9.148;2023-01-26T12:17:34;98463.53;;;-0.57;100.00
28312;BME280;15572;48.810;9.148;2023-01-26T12:33:25;98459.34;;;-0.60;100.00
28312;BME280;15572;48.810;9.148;2023-01-26T12:39:10;98444.06;;;-0.69;100.00
28312;BME280;15572;48.810;9.148;2023-01-26T12:44:39;98444.94;;;-0.68;100.00
28312;BME280;15572;48.810;9.148;2023-01-26T12:50:07;98452.41;;;-0.73;100.00
28312;BME280;15572;48.810;9.148;2023-01-26T12:55:31;98444.69;;;-0.76;100.00
28312;BME280;15572;48.810;9.148;2023-01-26T13:00:39;98437.91;;;-0.69;100.00
28312;BME280;15572;48.810;9.148;2023-01-26T13:05:54;98440.34;;;-0.66;100.00
28312;BME280;15572;48.810;9.148;2023-01-26T13:10:51;98428.38;;;-0.72;100.00
28312;BME280;15572;48.810;9.148;2023-01-26T13:21:40;98439.50;;;-0.67;100.00
28312;BME280;15572;48.810;9.148;2023-01-26T13:26:42;98423.44;;;-0.65;100.00
28312;BME280;15572;48.810;9.148;2023-01-26T13:31:39;98429.44;;;-0.63;100.00
28312;BME280;15572;48.810;9.148;2023-01-26T13:36:41;98433.59;;;-0.59;100.00
28312;BME280;15572;48.810;9.148;2023-01-26T13:41:45;98423.78;;;-0.70;100.00
28312;BME280;15572;48.810;9.148;2023-01-26T13:46:46;98426.78;;;-0.74;100.00
28312;BME280;15572;48.810;9.148;2023-01-26T13:51:45;98436.84;;;-0.78;100.00
28312;BME280;15572;48.810;9.148;2023-01-26T13:56:58;98427.31;;;-0.80;100.00
28312;BME280;15572;48.810;9.148;2023-01-26T14:01:56;98430.91;;;-0.81;100.00
28312;BME280;15572;48.810;9.148;2023-01-26T14:06:58;98437.09;;;-0.81;100.00
28312;BME280;15572;48.810;9.148;2023-01-26T14:12:00;98438.16;;;-0.83;100.00
28312;BME280;15572;48.810;9.148;2023-01-26T14:16:58;98438.16;;;-0.83;100.00
28312;BME280;15572;48.810;9.148;2023-01-26T14:22:00;98439.13;;;-0.73;100.00
28312;BME280;15572;48.810;9.148;2023-01-26T14:26:59;98447.00;;;-0.72;100.00
28312;BME280;15572;48.810;9.148;2023-01-26T14:31:57;98439.28;;;-0.75;100.00
28312;BME280;15572;48.810;9.148;2023-01-26T14:37:07;98453.16;;;-0.71;100.00
28312;BME280;15572;48.810;9.148;2023-01-26T14:42:09;98445.88;;;-0.69;100.00
28312;BME280;15572;48.810;9.148;2023-01-26T14:47:14;98454.38;;;-0.75;100.00
28312;BME280;15572;48.810;9.148;2023-01-26T14:52:23;98452.41;;;-0.73;100.00
28312;BME280;15572;48.810;9.148;2023-01-26T14:57:22;98450.50;;;-0.71;100.00
28312;BME280;15572;48.810;9.148;2023-01-26T15:02:22;98452.53;;;-0.64;100.00
28312;BME280;15572;48.810;9.148;2023-01-26T15:07:32;98456.19;;;-0.65;100.00
28312;BME280;15572;48.810;9.148;2023-01-26T15:12:32;98464.50;;;-0.58;100.00
28312;BME280;15572;48.810;9.148;2023-01-26T15:17:35;98467.16;;;-0.58;100.00
28312;BME280;15572;48.810;9.148;2023-01-26T15:22:34;98466.69;;;-0.63;100.00
28312;BME280;15572;48.810;9.148;2023-01-26T15:27:32;98464.28;;;-0.55;100.00
28312;BME280;15572;48.810;9.148;2023-01-26T15:32:31;98469.34;;;-0.63;100.00
28312;BME280;15572;48.810;9.148;2023-01-26T15:37:33;98481.09;;;-0.66;100.00
28312;BME280;15572;48.810;9.148;2023-01-26T15:42:30;98474.91;;;-0.66;100.00
28312;BME280;15572;48.810;9.148;2023-01-26T15:47:27;98477.31;;;-0.63;100.00
28312;BME280;15572;48.810;9.148;2023-01-26T15:52:26;98471.28;;;-0.65;100.00
28312;BME280;15572;48.810;9.148;2023-01-26T15:57:25;98475.88;;;-0.67;100.00
28312;BME280;15572;48.810;9.148;2023-01-26T16:02:22;98465.50;;;-0.70;100.00
28312;BME280;15572;48.810;9.148;2023-01-26T16:07:18;98471.66;;;-0.70;100.00
28312;BME280;15572;48.810;9.148;2023-01-26T16:12:16;98475.66;;;-0.64;100.00
28312;BME280;15572;48.810;9.148;2023-01-26T16:17:16;98469.22;;;-0.62;100.00
28312;BME280;15572;48.810;9.148;2023-01-26T16:22:13;98470.94;;;-0.61;100.00
28312;BME280;15572;48.810;9.148;2023-01-26T16:27:09;98484.34;;;-0.62;100.00
28312;BME280;15572;48.810;9.148;2023-01-26T16:32:19;98484.59;;;-0.76;100.00
28312;BME280;15572;48.810;9.148;2023-01-26T16:37:19;98477.44;;;-0.87;100.00
28312;BME280;15572;48.810;9.148;2023-01-26T16:42:17;98481.41;;;-0.93;100.00
28312;BME280;15572;48.810;9.148;2023-01-26T16:47:17;98483.81;;;-0.90;100.00
28312;BME280;15572;48.810;9.148;2023-01-26T16:52:13;98475.22;;;-1.04;100.00
28312;BME280;15572;48.810;9.148;2023-01-26T16:57:10;98479.78;;;-1.06;100.00
28312;BME280;15572;48.810;9.148;2023-01-26T17:02:17;98481.34;;;-1.15;100.00
28312;BME280;15572;48.810;9.148;2023-01-26T17:07:17;98483.91;;;-1.13;100.00
28312;BME280;15572;48.810;9.148;2023-01-26T17:12:13;98478.09;;;-1.18;100.00
28312;BME280;15572;48.810;9.148;2023-01-26T17:17:10;98475.78;;;-1.23;100.00
28312;BME280;15572;48.810;9.148;2023-01-26T17:22:06;98484.22;;;-1.29;100.00
28312;BME280;15572;48.810;9.148;2023-01-26T17:27:04;98480.81;;;-1.31;100.00
28312;BME280;15572;48.810;9.148;2023-01-26T17:32:00;98485.38;;;-1.33;100.00
28312;BME280;15572;48.810;9.148;2023-01-26T17:36:57;98486.84;;;-1.40;100.00
28312;BME280;15572;48.810;9.148;2023-01-26T17:41:54;98482.69;;;-1.44;100.00
28312;BME280;15572;48.810;9.148;2023-01-26T17:46:52;98487.91;;;-1.43;100.00
28312;BME280;15572;48.810;9.148;2023-01-26T17:51:48;98486.84;;;-1.40;100.00
28312;BME280;15572;48.810;9.148;2023-01-26T17:56:45;98495.25;;;-1.46;100.00
28312;BME280;15572;48.810;9.148;2023-01-26T18:01:41;98490.75;;;-1.57;100.00
28312;BME280;15572;48.810;9.148;2023-01-26T18:06:39;98487.97;;;-1.55;100.00
28312;BME280;15572;48.810;9.148;2023-01-26T18:11:36;98482.66;;;-1.55;100.00
28312;BME280;15572;48.810;9.148;2023-01-26T18:16:32;98495.94;;;-1.55;100.00
28312;BME280;15572;48.810;9.148;2023-01-26T18:21:30;98485.19;;;-1.54;100.00
28312;BME280;15572;48.810;9.148;2023-01-26T18:26:31;98505.09;;;-1.59;100.00
28312;BME280;15572;48.810;9.148;2023-01-26T18:31:30;98500.97;;;-1.63;100.00
28312;BME280;15572;48.810;9.148;2023-01-26T18:36:27;98501.31;;;-1.68;100.00
28312;BME280;15572;48.810;9.148;2023-01-26T18:41:25;98498.25;;;-1.75;100.00
28312;BME280;15572;48.810;9.148;2023-01-26T18:46:25;98495.59;;;-1.75;100.00
28312;BME280;15572;48.810;9.148;2023-01-26T18:51:21;98500.19;;;-1.77;100.00
28312;BME280;15572;48.810;9.148;2023-01-26T18:56:18;98508.47;;;-1.81;100.00
28312;BME280;15572;48.810;9.148;2023-01-26T19:01:15;98504.25;;;-1.84;100.00
28312;BME280;15572;48.810;9.148;2023-01-26T19:06:16;98507.75;;;-1.83;100.00
28312;BME280;15572;48.810;9.148;2023-01-26T19:11:13;98504.25;;;-1.84;100.00
28312;BME280;15572;48.810;9.148;2023-01-26T19:16:10;98505.09;;;-1.83;100.00
28312;BME280;15572;48.810;9.148;2023-01-26T19:21:07;98494.91;;;-1.89;100.00
28312;BME280;15572;48.810;9.148;2023-01-26T19:26:09;98495.88;;;-1.90;100.00
28312;BME280;15572;48.810;9.148;2023-01-26T19:31:06;98501.19;;;-1.90;100.00
28312;BME280;15572;48.810;9.148;2023-01-26T19:36:04;98494.16;;;-1.91;100.00
28312;BME280;15572;48.810;9.148;2023-01-26T19:41:01;98498.53;;;-1.90;100.00
28312;BME280;15572;48.810;9.148;2023-01-26T19:45:59;98497.78;;;-1.92;100.00
28312;BME280;15572;48.810;9.148;2023-01-26T19:50:58;98496.81;;;-1.91;100.00
28312;BME280;15572;48.810;9.148;2023-01-26T19:55:57;98499.72;;;-1.94;100.00
28312;BME280;15572;48.810;9.148;2023-01-26T20:00:59;98488.25;;;-1.95;100.00
28312;BME280;15572;48.810;9.148;2023-01-26T20:05:56;98491.00;;;-1.96;100.00
28312;BME280;15572;48.810;9.148;2023-01-26T20:10:53;98491.75;;;-1.94;100.00
28312;BME280;15572;48.810;9.148;2023-01-26T20:15:49;98491.75;;;-1.94;100.00
28312;BME280;15572;48.810;9.148;2023-01-26T20:20:49;98487.06;;;-1.91;100.00
28312;BME280;15572;48.810;9.148;2023-01-26T20:25:46;98490.66;;;-1.92;100.00
28312;BME280;15572;48.810;9.148;2023-01-26T20:30:43;98499.63;;;-1.93;100.00
28312;BME280;15572;48.810;9.148;2023-01-26T20:35:40;98497.91;;;-1.94;100.00
28312;BME280;15572;48.810;9.148;2023-01-26T20:40:39;98505.03;;;-1.94;100.00
28312;BME280;15572;48.810;9.148;2023-01-26T20:45:38;98504.06;;;-1.93;100.00
28312;BME280;15572;48.810;9.148;2023-01-26T20:50:34;98499.91;;;-1.97;100.00
28312;BME280;15572;48.810;9.148;2023-01-26T20:55:34;98501.84;;;-1.99;100.00
28312;BME280;15572;48.810;9.148;2023-01-26T21:00:32;98500.06;;;-1.99;100.00
28312;BME280;15572;48.810;9.148;2023-01-26T21:05:30;98503.66;;;-2.00;100.00
28312;BME280;15572;48.810;9.148;2023-01-26T21:10:26;98503.56;;;-1.98;100.00
28312;BME280;15572;48.810;9.148;2023-01-26T21:15:23;98493.03;;;-2.00;100.00
28312;BME280;15572;48.810;9.148;2023-01-26T21:20:21;98486.38;;;-2.05;100.00
28312;BME280;15572;48.810;9.148;2023-01-26T21:25:17;98489.44;;;-1.99;100.00
28312;BME280;15572;48.810;9.148;2023-01-26T21:30:14;98482.44;;;-2.00;100.00
28312;BME280;15572;48.810;9.148;2023-01-26T21:35:10;98479.25;;;-2.05;100.00
28312;BME280;15572;48.810;9.148;2023-01-26T21:40:11;98469.84;;;-2.09;100.00
28312;BME280;15572;48.810;9.148;2023-01-26T21:45:08;98469.38;;;-2.03;100.00
28312;BME280;15572;48.810;9.148;2023-01-26T21:50:23;98465.75;;;-2.02;100.00
28312;BME280;15572;48.810;9.148;2023-01-26T21:55:41;98472.88;;;-2.02;100.00
28312;BME280;15572;48.810;9.148;2023-01-26T22:00:37;98472.03;;;-2.03;100.00
28312;BME280;15572;48.810;9.148;2023-01-26T22:05:37;98474.38;;;-1.98;100.00
28312;BME280;15572;48.810;9.148;2023-01-26T22:10:33;98469.06;;;-1.98;100.00
28312;BME280;15572;48.810;9.148;2023-01-26T22:15:33;98469.66;;;-1.95;100.00
28312;BME280;15572;48.810;9.148;2023-01-26T22:20:29;98474.13;;;-1.95;100.00
28312;BME280;15572;48.810;9.148;2023-01-26T22:25:25;98466.50;;;-2.00;100.00
28312;BME280;15572;48.810;9.148;2023-01-26T22:30:22;98469.91;;;-1.98;100.00
28312;BME280;15572;48.810;9.148;2023-01-26T22:35:20;98466.28;;;-1.97;100.00
28312;BME280;15572;48.810;9.148;2023-01-26T22:40:17;98467.34;;;-1.99;100.00
28312;BME280;15572;48.810;9.148;2023-01-26T22:45:14;98469.91;;;-1.98;100.00
28312;BME280;15572;48.810;9.148;2023-01-26T22:50:10;98464.38;;;-1.95;100.00
28312;BME280;15572;48.810;9.148;2023-01-26T22:55:08;98459.06;;;-1.95;100.00
28312;BME280;15572;48.810;9.148;2023-01-26T23:00:06;98446.63;;;-1.94;100.00
28312;BME280;15572;48.810;9.148;2023-01-26T23:05:03;98447.59;;;-1.95;100.00
28312;BME280;15572;48.810;9.148;2023-01-26T23:10:00;98438.78;;;-1.96;100.00
28312;BME280;15572;48.810;9.148;2023-01-26T23:14:58;98434.44;;;-1.97;100.00
28312;BME280;15572;48.810;9.148;2023-01-26T23:19:54;98438.16;;;-1.99;100.00
28312;BME280;15572;48.810;9.148;2023-01-26T23:24:51;98430.41;;;-2.02;100.00
28312;BME280;15572;48.810;9.148;2023-01-26T23:30:03;98430.41;;;-2.02;100.00
28312;BME280;15572;48.810;9.148;2023-01-26T23:35:00;98423.19;;;-2.00;100.00
28312;BME280;15572;48.810;9.148;2023-01-26T23:39:56;98429.25;;;-1.98;100.00
28312;BME280;15572;48.810;9.148;2023-01-26T23:44:53;98428.25;;;-1.97;100.00
28312;BME280;15572;48.810;9.148;2023-01-26T23:49:50;98424.78;;;-1.98;100.00
28312;BME280;15572;48.810;9.148;2023-01-26T23:54:47;98420.31;;;-1.97;100.00
28312;BME280;15572;48.810;9.148;2023-01-26T23:59:43;98419.59;;;-1.99;100.00
